Harmony Livestock — 5IM640 — position and weather

sailwx.info

Track history (hours):
 
Tides and Currents Weather Stations Pressure Air Temp Water Temp Dewpoint Dewpoint Depression Visibility Wind Speed Wind Dir Waves Ship Positions

Harmony Livestock

Last reported at 2018-Jan-19 12:29 UTC. Time now 2018-Jan-21 22:38 UTC.
Position N 36°42' E 027°20'.

; draft 5 m.

Type: Other ship. MMSI: 677054000.

Date/timePositionNaut miles runAvg speedWind from/ knotsBaromVisibWave heightAir tempDewpointWater temp
2018-Jan-19 12:29N 36°42' E 027°20'44 8.3
2018-Jan-19 07:12N 37°20' E 026°52'2 9.5
2018-Jan-19 07:00N 37°21' E 026°51'5 9.3
2018-Jan-19 06:28N 37°25' E 026°47'14 9.2
2018-Jan-19 05:00N 37°36' E 026°37'13 8.8
2018-Jan-19 03:34N 37°47' E 026°28'1 8.8
2018-Jan-19 03:30N 37°47' E 026°28'4 8.8
2018-Jan-19 03:00N 37°51' E 026°25'5 8.7
2018-Jan-19 02:29N 37°55' E 026°23'  
2018-Jan-12 14:58N 44°20' E 028°41'0 0.0
2018-Jan-12 14:28N 44°20' E 028°41'0 0.0
2018-Jan-12 13:58N 44°20' E 028°41'0 0.0
2018-Jan-12 13:28N 44°20' E 028°41'0 0.0
2018-Jan-12 12:58N 44°20' E 028°41'0 0.0
2018-Jan-12 12:28N 44°20' E 028°41'0 0.0
2018-Jan-12 11:58N 44°20' E 028°41'0 0.0
2018-Jan-12 11:28N 44°20' E 028°41'0 0.0
2018-Jan-12 10:58N 44°20' E 028°41'0 0.0
2018-Jan-12 10:28N 44°20' E 028°41'0 0.0
2018-Jan-11 08:49N 44°20' E 028°41'0 0.0
2018-Jan-11 08:28N 44°20' E 028°41'0 0.0
2018-Jan-11 07:58N 44°20' E 028°41'0 0.0
2018-Jan-11 07:28N 44°20' E 028°41'0 0.0
2018-Jan-11 06:58N 44°20' E 028°41'0 0.0
2018-Jan-11 06:28N 44°20' E 028°41'0 0.0
2018-Jan-11 05:58N 44°20' E 028°41'0 0.0
2018-Jan-11 05:28N 44°20' E 028°41'0 0.0
2018-Jan-11 04:58N 44°20' E 028°41'0 0.0
2018-Jan-11 04:28N 44°20' E 028°41'0 0.0
2018-Jan-11 03:58N 44°20' E 028°41'0 0.0
2018-Jan-11 03:28N 44°20' E 028°41'0 0.0
2018-Jan-11 02:58N 44°20' E 028°41'0 0.0
2018-Jan-11 02:28N 44°20' E 028°41'0 0.0
2018-Jan-11 01:58N 44°20' E 028°41'0 0.0
2018-Jan-11 01:28N 44°20' E 028°41'0 0.0
2018-Jan-11 00:58N 44°20' E 028°41'0 0.0
2018-Jan-11 00:28N 44°20' E 028°41'0 0.0
2018-Jan-10 23:58N 44°20' E 028°41'0 0.0
2018-Jan-10 23:28N 44°20' E 028°41'0 0.0
2018-Jan-10 22:58N 44°20' E 028°41'0 0.0
2018-Jan-10 22:28N 44°20' E 028°41'0 0.0
2018-Jan-10 21:58N 44°20' E 028°41'0 0.0
2018-Jan-10 21:28N 44°20' E 028°41'0 0.0
2018-Jan-10 20:58N 44°20' E 028°41'0 0.0
2018-Jan-10 20:28N 44°20' E 028°41'0 0.0
2018-Jan-10 19:58N 44°20' E 028°41'0 0.0
2018-Jan-10 19:28N 44°20' E 028°41'0 0.0
2018-Jan-10 18:58N 44°20' E 028°41'0 0.0
2018-Jan-10 18:28N 44°20' E 028°41'0 0.0
2018-Jan-10 17:58N 44°20' E 028°41'0 0.0
2018-Jan-10 17:28N 44°20' E 028°41'0 0.0
2018-Jan-10 16:58N 44°20' E 028°41'0 0.0
2018-Jan-10 16:28N 44°20' E 028°41'0 0.0
2018-Jan-10 15:58N 44°20' E 028°41'0 0.0
2018-Jan-10 15:28N 44°20' E 028°41'0 0.0
2018-Jan-10 14:58N 44°20' E 028°41'0 0.0
2018-Jan-10 14:28N 44°20' E 028°41'0 0.0
2018-Jan-10 13:58N 44°20' E 028°41'0 0.0
2018-Jan-10 13:28N 44°20' E 028°41'0 0.0
2018-Jan-10 12:58N 44°20' E 028°41'0 0.0
2018-Jan-10 12:28N 44°20' E 028°41'0 0.0
2018-Jan-10 11:58N 44°20' E 028°41'0 0.0
2018-Jan-10 11:28N 44°20' E 028°41'0 0.0
2018-Jan-10 10:58N 44°20' E 028°41'0 0.0
2018-Jan-10 10:28N 44°20' E 028°41'0 0.0
2018-Jan-10 09:58N 44°20' E 028°41'0 0.0
2018-Jan-10 09:28N 44°20' E 028°41'0 0.0
2018-Jan-10 08:58N 44°20' E 028°41'0 0.0
2018-Jan-10 08:28N 44°20' E 028°41'0 0.0
2018-Jan-10 07:58N 44°20' E 028°41'0 0.0
2018-Jan-10 07:28N 44°20' E 028°41'0 0.0
2018-Jan-10 06:58N 44°20' E 028°41'0 0.0
2018-Jan-10 06:25N 44°20' E 028°41'0 0.0
2018-Jan-10 05:58N 44°20' E 028°41'0 0.0
2018-Jan-10 05:28N 44°20' E 028°41'0 0.0
2018-Jan-10 04:58N 44°20' E 028°41'0 0.0
2018-Jan-10 04:28N 44°20' E 028°41'0 0.0
2018-Jan-10 03:58N 44°20' E 028°41'0 0.0
2018-Jan-10 03:28N 44°20' E 028°41'0 0.0
2018-Jan-10 02:58N 44°20' E 028°41'0 0.0
2018-Jan-10 02:28N 44°20' E 028°41'0 0.0
2018-Jan-10 01:58N 44°20' E 028°41'0 0.0
2018-Jan-10 01:28N 44°20' E 028°41'0 0.0
2018-Jan-10 00:58N 44°20' E 028°41'0 0.0
2018-Jan-10 00:28N 44°20' E 028°41'0 0.0
2018-Jan-09 23:58N 44°20' E 028°41'0 0.0
2018-Jan-09 23:28N 44°20' E 028°41'0 0.0
2018-Jan-09 22:58N 44°20' E 028°41'0 0.0
2018-Jan-09 22:28N 44°20' E 028°41'0 0.0
2018-Jan-09 21:58N 44°20' E 028°41'0 0.0
2018-Jan-09 21:28N 44°20' E 028°41'0 0.0
2018-Jan-09 20:58N 44°20' E 028°41'0 0.0
2018-Jan-09 20:28N 44°20' E 028°41'0 0.0
2018-Jan-09 19:58N 44°20' E 028°41'0 0.0
2018-Jan-09 19:28N 44°20' E 028°41'0 0.0
2018-Jan-09 18:58N 44°20' E 028°41'0 0.0
2018-Jan-09 18:28N 44°20' E 028°41'0 0.0
2018-Jan-09 17:58N 44°20' E 028°41'0 0.0
2018-Jan-09 17:28N 44°20' E 028°41'0 0.0
2018-Jan-09 16:58N 44°20' E 028°41'0 0.0
2018-Jan-09 16:28N 44°20' E 028°41'0 0.0
2018-Jan-09 15:58N 44°20' E 028°41'0 0.0
2018-Jan-09 15:28N 44°20' E 028°41'0 0.0
2018-Jan-09 14:58N 44°20' E 028°41'0 0.0
2018-Jan-09 14:28N 44°20' E 028°41'0 0.0
2018-Jan-09 13:58N 44°20' E 028°41'0 0.0
2018-Jan-09 13:28N 44°20' E 028°41'0 0.0
2018-Jan-09 12:58N 44°20' E 028°41'  
Track history (hours):
 
Tides and Currents Weather Stations Pressure Air Temp Water Temp Dewpoint Dewpoint Depression Visibility Wind Speed Wind Dir Waves Ship Positions

Harmony Livestock

Last reported at 2018-Jan-19 12:29 UTC. Time now 2018-Jan-21 22:38 UTC.
Position N 36°42' E 027°20'.

; draft 5 m.

Type: Other ship. MMSI: 677054000.

Date/timePositionNaut miles runAvg speedWind from/ knotsBaromVisibWave heightAir tempDewpointWater temp
2018-Jan-19 12:29N 36°42' E 027°20'44 8.3
2018-Jan-19 07:12N 37°20' E 026°52'2 9.5
2018-Jan-19 07:00N 37°21' E 026°51'5 9.3
2018-Jan-19 06:28N 37°25' E 026°47'14 9.2
2018-Jan-19 05:00N 37°36' E 026°37'13 8.8
2018-Jan-19 03:34N 37°47' E 026°28'1 8.8
2018-Jan-19 03:30N 37°47' E 026°28'4 8.8
2018-Jan-19 03:00N 37°51' E 026°25'5 8.7
2018-Jan-19 02:29N 37°55' E 026°23'  
2018-Jan-12 14:58N 44°20' E 028°41'0 0.0
2018-Jan-12 14:28N 44°20' E 028°41'0 0.0
2018-Jan-12 13:58N 44°20' E 028°41'0 0.0
2018-Jan-12 13:28N 44°20' E 028°41'0 0.0
2018-Jan-12 12:58N 44°20' E 028°41'0 0.0
2018-Jan-12 12:28N 44°20' E 028°41'0 0.0
2018-Jan-12 11:58N 44°20' E 028°41'0 0.0
2018-Jan-12 11:28N 44°20' E 028°41'0 0.0
2018-Jan-12 10:58N 44°20' E 028°41'0 0.0
2018-Jan-12 10:28N 44°20' E 028°41'0 0.0
2018-Jan-11 08:49N 44°20' E 028°41'0 0.0
2018-Jan-11 08:28N 44°20' E 028°41'0 0.0
2018-Jan-11 07:58N 44°20' E 028°41'0 0.0
2018-Jan-11 07:28N 44°20' E 028°41'0 0.0
2018-Jan-11 06:58N 44°20' E 028°41'0 0.0
2018-Jan-11 06:28N 44°20' E 028°41'0 0.0
2018-Jan-11 05:58N 44°20' E 028°41'0 0.0
2018-Jan-11 05:28N 44°20' E 028°41'0 0.0
2018-Jan-11 04:58N 44°20' E 028°41'0 0.0
2018-Jan-11 04:28N 44°20' E 028°41'0 0.0
2018-Jan-11 03:58N 44°20' E 028°41'0 0.0
2018-Jan-11 03:28N 44°20' E 028°41'0 0.0
2018-Jan-11 02:58N 44°20' E 028°41'0 0.0
2018-Jan-11 02:28N 44°20' E 028°41'0 0.0
2018-Jan-11 01:58N 44°20' E 028°41'0 0.0
2018-Jan-11 01:28N 44°20' E 028°41'0 0.0
2018-Jan-11 00:58N 44°20' E 028°41'0 0.0
2018-Jan-11 00:28N 44°20' E 028°41'0 0.0
2018-Jan-10 23:58N 44°20' E 028°41'0 0.0
2018-Jan-10 23:28N 44°20' E 028°41'0 0.0
2018-Jan-10 22:58N 44°20' E 028°41'0 0.0
2018-Jan-10 22:28N 44°20' E 028°41'0 0.0
2018-Jan-10 21:58N 44°20' E 028°41'0 0.0
2018-Jan-10 21:28N 44°20' E 028°41'0 0.0
2018-Jan-10 20:58N 44°20' E 028°41'0 0.0
2018-Jan-10 20:28N 44°20' E 028°41'0 0.0
2018-Jan-10 19:58N 44°20' E 028°41'0 0.0
2018-Jan-10 19:28N 44°20' E 028°41'0 0.0
2018-Jan-10 18:58N 44°20' E 028°41'0 0.0
2018-Jan-10 18:28N 44°20' E 028°41'0 0.0
2018-Jan-10 17:58N 44°20' E 028°41'0 0.0
2018-Jan-10 17:28N 44°20' E 028°41'0 0.0
2018-Jan-10 16:58N 44°20' E 028°41'0 0.0
2018-Jan-10 16:28N 44°20' E 028°41'0 0.0
2018-Jan-10 15:58N 44°20' E 028°41'0 0.0
2018-Jan-10 15:28N 44°20' E 028°41'0 0.0
2018-Jan-10 14:58N 44°20' E 028°41'0 0.0
2018-Jan-10 14:28N 44°20' E 028°41'0 0.0
2018-Jan-10 13:58N 44°20' E 028°41'0 0.0
2018-Jan-10 13:28N 44°20' E 028°41'0 0.0
2018-Jan-10 12:58N 44°20' E 028°41'0 0.0
2018-Jan-10 12:28N 44°20' E 028°41'0 0.0
2018-Jan-10 11:58N 44°20' E 028°41'0 0.0
2018-Jan-10 11:28N 44°20' E 028°41'0 0.0
2018-Jan-10 10:58N 44°20' E 028°41'0 0.0
2018-Jan-10 10:28N 44°20' E 028°41'0 0.0
2018-Jan-10 09:58N 44°20' E 028°41'0 0.0
2018-Jan-10 09:28N 44°20' E 028°41'0 0.0
2018-Jan-10 08:58N 44°20' E 028°41'0 0.0
2018-Jan-10 08:28N 44°20' E 028°41'0 0.0
2018-Jan-10 07:58N 44°20' E 028°41'0 0.0
2018-Jan-10 07:28N 44°20' E 028°41'0 0.0
2018-Jan-10 06:58N 44°20' E 028°41'0 0.0
2018-Jan-10 06:25N 44°20' E 028°41'0 0.0
2018-Jan-10 05:58N 44°20' E 028°41'0 0.0
2018-Jan-10 05:28N 44°20' E 028°41'0 0.0
2018-Jan-10 04:58N 44°20' E 028°41'0 0.0
2018-Jan-10 04:28N 44°20' E 028°41'0 0.0
2018-Jan-10 03:58N 44°20' E 028°41'0 0.0
2018-Jan-10 03:28N 44°20' E 028°41'0 0.0
2018-Jan-10 02:58N 44°20' E 028°41'0 0.0
2018-Jan-10 02:28N 44°20' E 028°41'0 0.0
2018-Jan-10 01:58N 44°20' E 028°41'0 0.0
2018-Jan-10 01:28N 44°20' E 028°41'0 0.0
2018-Jan-10 00:58N 44°20' E 028°41'0 0.0
2018-Jan-10 00:28N 44°20' E 028°41'0 0.0
2018-Jan-09 23:58N 44°20' E 028°41'0 0.0
2018-Jan-09 23:28N 44°20' E 028°41'0 0.0
2018-Jan-09 22:58N 44°20' E 028°41'0 0.0
2018-Jan-09 22:28N 44°20' E 028°41'0 0.0
2018-Jan-09 21:58N 44°20' E 028°41'0 0.0
2018-Jan-09 21:28N 44°20' E 028°41'0 0.0
2018-Jan-09 20:58N 44°20' E 028°41'0 0.0
2018-Jan-09 20:28N 44°20' E 028°41'0 0.0
2018-Jan-09 19:58N 44°20' E 028°41'0 0.0
2018-Jan-09 19:28N 44°20' E 028°41'0 0.0
2018-Jan-09 18:58N 44°20' E 028°41'0 0.0
2018-Jan-09 18:28N 44°20' E 028°41'0 0.0
2018-Jan-09 17:58N 44°20' E 028°41'0 0.0
2018-Jan-09 17:28N 44°20' E 028°41'0 0.0
2018-Jan-09 16:58N 44°20' E 028°41'0 0.0
2018-Jan-09 16:28N 44°20' E 028°41'0 0.0
2018-Jan-09 15:58N 44°20' E 028°41'0 0.0
2018-Jan-09 15:28N 44°20' E 028°41'0 0.0
2018-Jan-09 14:58N 44°20' E 028°41'0 0.0
2018-Jan-09 14:28N 44°20' E 028°41'0 0.0
2018-Jan-09 13:58N 44°20' E 028°41'0 0.0
2018-Jan-09 13:28N 44°20' E 028°41'0 0.0
2018-Jan-09 12:58N 44°20' E 028°41'  

Dump ship's entire track history